createdAt,value
2022-08-31T00:00:31.455Z,98802.66
2022-08-31T00:03:17.115Z,98807.66
2022-08-31T00:05:43.987Z,98812.41
2022-08-31T00:08:10.569Z,98798.53
2022-08-31T00:10:41.151Z,98806.28
2022-08-31T00:13:10.171Z,98800.88
2022-08-31T00:15:36.931Z,98796.97
2022-08-31T00:18:04.046Z,98799.44
2022-08-31T00:20:34.370Z,98800.22
2022-08-31T00:23:07.029Z,98797.38
2022-08-31T00:25:34.305Z,98794.72
2022-08-31T00:28:09.284Z,98796.91
2022-08-31T00:30:39.895Z,98791.75
2022-08-31T00:33:06.864Z,98790.44
2022-08-31T00:35:36.177Z,98791.56
2022-08-31T00:38:06.342Z,98793.16
2022-08-31T00:40:43.303Z,98788.16
2022-08-31T00:43:13.604Z,98793.50
2022-08-31T00:45:40.216Z,98792.19
2022-08-31T00:48:06.711Z,98786.34
2022-08-31T00:50:33.624Z,98790.31
2022-08-31T00:53:01.432Z,98786.16
2022-08-31T00:55:32.351Z,98788.00
2022-08-31T00:58:03.847Z,98787.78
2022-08-31T01:00:31.643Z,98789.41
2022-08-31T01:03:02.478Z,98792.97
2022-08-31T01:05:31.073Z,98787.16
2022-08-31T01:07:59.712Z,98786.41
2022-08-31T01:10:31.857Z,98780.84
2022-08-31T01:12:58.967Z,98784.28
2022-08-31T01:15:26.892Z,98786.94
2022-08-31T01:17:55.976Z,98788.31
2022-08-31T01:20:57.004Z,98788.31
2022-08-31T01:23:27.749Z,98787.50
2022-08-31T01:25:57.679Z,98785.91
2022-08-31T01:28:24.947Z,98784.91
2022-08-31T01:31:28.797Z,98788.13
2022-08-31T01:33:55.915Z,98791.28
2022-08-31T01:36:25.077Z,98795.50
2022-08-31T01:38:53.082Z,98789.97
2022-08-31T01:41:20.766Z,98799.28
2022-08-31T01:43:47.298Z,98788.41
2022-08-31T01:46:14.736Z,98793.50
2022-08-31T01:48:43.639Z,98798.25
2022-08-31T01:51:12.732Z,98793.50
2022-08-31T01:53:39.660Z,98794.03
2022-08-31T01:56:19.483Z,98799.56
2022-08-31T01:58:46.027Z,98788.22
2022-08-31T02:01:33.051Z,98789.28
2022-08-31T02:03:59.387Z,98794.56
2022-08-31T02:06:26.279Z,98794.81
2022-08-31T02:08:52.997Z,98798.56
2022-08-31T02:11:19.631Z,98792.19
2022-08-31T02:13:46.661Z,98790.66
2022-08-31T02:16:13.808Z,98792.75
2022-08-31T02:18:52.879Z,98786.44
2022-08-31T02:21:19.614Z,98780.09
2022-08-31T02:23:46.240Z,98786.97
2022-08-31T02:26:12.903Z,98784.34
2022-08-31T02:28:39.695Z,98777.75
2022-08-31T02:31:06.751Z,98783.31
2022-08-31T02:33:33.503Z,98779.63
2022-08-31T02:36:00.129Z,98781.47
2022-08-31T02:38:27.401Z,98785.16
2022-08-31T02:40:54.147Z,98786.25
2022-08-31T02:43:24.989Z,98786.75
2022-08-31T02:45:53.438Z,98793.63
2022-08-31T02:48:20.634Z,98788.59
2022-08-31T02:50:50.281Z,98798.91
2022-08-31T02:53:21.434Z,98791.47
2022-08-31T02:55:48.373Z,98789.88
2022-08-31T02:58:18.592Z,98789.63
2022-08-31T03:00:48.175Z,98784.88
2022-08-31T03:03:15.448Z,98788.59
2022-08-31T03:05:42.044Z,98786.50
2022-08-31T03:08:08.635Z,98790.19
2022-08-31T03:10:35.792Z,98784.38
2022-08-31T03:13:02.485Z,98792.81
2022-08-31T03:15:29.813Z,98789.88
2022-08-31T03:17:56.815Z,98787.28
2022-08-31T03:20:27.003Z,98786.50
2022-08-31T03:22:54.056Z,98788.09
2022-08-31T03:25:21.131Z,98785.16
2022-08-31T03:27:47.925Z,98782.50
2022-08-31T03:30:17.383Z,98777.00
2022-08-31T03:32:45.695Z,98786.22
2022-08-31T03:35:13.121Z,98786.75
2022-08-31T03:37:39.664Z,98784.59
2022-08-31T03:40:08.098Z,98785.97
2022-08-31T03:42:35.111Z,98787.56
2022-08-31T03:45:01.893Z,98787.31
2022-08-31T03:47:28.663Z,98784.66
2022-08-31T03:49:55.706Z,98785.44
2022-08-31T03:52:22.166Z,98790.44
2022-08-31T03:54:49.118Z,98789.94
2022-08-31T03:57:15.701Z,98791.78
2022-08-31T03:59:42.217Z,98797.31
2022-08-31T04:02:08.757Z,98788.88
2022-08-31T04:04:35.410Z,98799.19
2022-08-31T04:07:02.076Z,98813.16
2022-08-31T04:09:28.831Z,98794.69
2022-08-31T04:11:55.581Z,98799.16
2022-08-31T04:14:22.214Z,98799.94
2022-08-31T04:16:48.762Z,98805.22
2022-08-31T04:19:16.803Z,98802.53
2022-08-31T04:21:44.579Z,98800.19
2022-08-31T04:24:13.232Z,98804.13
2022-08-31T04:26:42.859Z,98808.91
2022-08-31T04:31:51.722Z,98801.78
2022-08-31T04:34:19.159Z,98801.81
2022-08-31T04:36:53.710Z,98802.09
2022-08-31T04:39:21.897Z,98802.09
2022-08-31T04:44:33.899Z,98806.84
2022-08-31T04:47:03.119Z,98806.34
2022-08-31T04:49:34.844Z,98804.50
2022-08-31T04:52:10.991Z,98807.94
2022-08-31T04:54:42.749Z,98805.03
2022-08-31T04:57:09.828Z,98814.81
2022-08-31T04:59:36.762Z,98815.31
2022-08-31T05:10:41.243Z,98831.16
2022-08-31T05:13:08.872Z,98825.63
2022-08-31T05:18:29.649Z,98830.63
2022-08-31T05:20:58.803Z,98833.28
2022-08-31T05:23:26.952Z,98825.34
2022-08-31T05:25:53.800Z,98835.91
2022-08-31T05:28:24.937Z,98830.09
2022-08-31T05:30:53.153Z,98826.66
2022-08-31T05:36:05.648Z,98838.03
2022-08-31T05:38:33.009Z,98839.34
2022-08-31T05:41:03.781Z,98839.03
2022-08-31T05:43:30.802Z,98836.38
2022-08-31T05:46:04.516Z,98838.22
2022-08-31T05:48:36.144Z,98844.78
2022-08-31T05:51:12.097Z,98836.06
2022-08-31T05:53:40.994Z,98835.53
2022-08-31T05:56:20.664Z,98836.84
2022-08-31T05:58:53.629Z,98842.16
2022-08-31T06:01:25.216Z,98840.31
2022-08-31T06:03:55.002Z,98838.22
2022-08-31T06:06:22.161Z,98852.72
2022-08-31T06:08:52.458Z,98843.44
2022-08-31T06:11:22.669Z,98842.38
2022-08-31T06:13:53.355Z,98837.00
2022-08-31T06:19:07.412Z,98840.88
2022-08-31T06:24:20.943Z,98845.00
2022-08-31T06:29:33.893Z,98848.44
2022-08-31T06:34:43.109Z,98849.00
2022-08-31T06:37:18.500Z,98851.69
2022-08-31T06:39:47.997Z,98852.00
2022-08-31T06:42:15.100Z,98853.34
2022-08-31T06:44:46.059Z,98847.31
2022-08-31T06:47:14.431Z,98851.22
2022-08-31T06:49:41.692Z,98850.88
2022-08-31T06:52:09.046Z,98860.59
2022-08-31T06:54:38.341Z,98863.38
2022-08-31T06:57:05.430Z,98856.50
2022-08-31T06:59:33.413Z,98861.00
2022-08-31T07:02:05.347Z,98863.63
2022-08-31T07:07:17.216Z,98857.91
2022-08-31T07:09:45.241Z,98864.06
2022-08-31T07:12:16.441Z,98866.53
2022-08-31T07:14:54.515Z,98861.38
2022-08-31T07:17:25.401Z,98866.06
2022-08-31T07:19:52.637Z,98864.78
2022-08-31T07:22:19.714Z,98867.22
2022-08-31T07:24:49.831Z,98873.09
2022-08-31T07:27:18.817Z,98865.78
2022-08-31T07:32:27.861Z,98875.09
2022-08-31T07:34:59.717Z,98876.88
2022-08-31T07:37:47.675Z,98874.22
2022-08-31T07:40:37.264Z,98882.13
2022-08-31T07:43:05.894Z,98879.66
2022-08-31T07:45:37.692Z,98879.72
2022-08-31T07:48:06.478Z,98884.13
2022-08-31T07:50:34.105Z,98891.66
2022-08-31T07:53:01.649Z,98882.50
2022-08-31T07:55:29.545Z,98892.69
2022-08-31T07:57:57.824Z,98890.66
2022-08-31T08:03:17.101Z,98889.06
2022-08-31T08:14:05.253Z,98890.03
2022-08-31T08:16:35.338Z,98893.00
2022-08-31T08:19:06.696Z,98899.59
2022-08-31T08:21:33.703Z,98898.16
2022-08-31T08:24:01.013Z,98905.13
2022-08-31T08:26:29.681Z,98891.84
2022-08-31T08:28:58.321Z,98888.41
2022-08-31T08:39:36.496Z,98900.91
2022-08-31T08:44:45.848Z,98896.31
2022-08-31T08:47:23.899Z,98897.44
2022-08-31T08:49:56.438Z,98901.38
2022-08-31T08:52:32.993Z,98896.31
2022-08-31T08:58:01.957Z,98901.00
2022-08-31T09:03:45.191Z,98899.63
2022-08-31T09:06:17.274Z,98906.59
2022-08-31T09:09:24.015Z,98907.00
2022-08-31T09:12:10.289Z,98895.13
2022-08-31T09:15:03.347Z,98896.50
2022-08-31T09:18:01.006Z,98891.16
2022-08-31T09:20:29.334Z,98886.84
2022-08-31T09:22:58.745Z,98892.94
2022-08-31T09:25:35.048Z,98889.28
2022-08-31T09:28:14.638Z,98895.47
2022-08-31T09:30:47.256Z,98892.91
2022-08-31T09:33:30.187Z,98892.03
2022-08-31T09:36:34.131Z,98894.34
2022-08-31T09:39:37.192Z,98889.72
2022-08-31T09:42:29.367Z,98893.28
2022-08-31T09:45:01.707Z,98893.94
2022-08-31T09:53:46.774Z,98876.03
2022-08-31T09:56:18.794Z,98893.28
2022-08-31T10:01:38.831Z,98887.69
2022-08-31T10:04:18.467Z,98879.81
2022-08-31T10:07:17.328Z,98878.38
2022-08-31T10:12:53.853Z,98871.22
2022-08-31T10:30:53.450Z,98874.16
2022-08-31T10:33:25.950Z,98878.34
2022-08-31T10:35:55.667Z,98880.97
2022-08-31T10:38:33.461Z,98877.75
2022-08-31T10:41:18.084Z,98874.66
2022-08-31T10:43:51.122Z,98875.53
2022-08-31T10:46:18.097Z,98871.97
2022-08-31T10:48:54.570Z,98873.69
2022-08-31T10:54:40.329Z,98865.03
2022-08-31T10:57:44.224Z,98868.50
2022-08-31T11:00:38.389Z,98872.41
2022-08-31T11:03:42.660Z,98868.50
2022-08-31T11:06:46.401Z,98866.09
2022-08-31T11:09:42.330Z,98878.13
2022-08-31T11:12:21.714Z,98866.13
2022-08-31T11:15:10.518Z,98873.59
2022-08-31T11:17:56.432Z,98863.75
2022-08-31T11:20:39.961Z,98868.16
2022-08-31T11:23:45.169Z,98871.56
2022-08-31T11:26:49.721Z,98868.78
2022-08-31T11:29:43.992Z,98869.19
2022-08-31T11:32:26.220Z,98867.03
2022-08-31T11:34:56.659Z,98865.19
2022-08-31T11:37:56.128Z,98867.31
2022-08-31T11:40:42.340Z,98860.22
2022-08-31T11:43:35.532Z,98861.72
2022-08-31T11:46:27.463Z,98859.16
2022-08-31T11:48:55.086Z,98852.88
2022-08-31T11:51:40.750Z,98859.13
2022-08-31T11:54:26.355Z,98855.03
2022-08-31T11:56:57.098Z,98860.66
2022-08-31T11:59:34.242Z,98858.75
2022-08-31T12:02:19.210Z,98853.19
2022-08-31T12:04:51.507Z,98860.25
2022-08-31T12:07:36.615Z,98857.31
2022-08-31T12:10:28.546Z,98860.97
2022-08-31T12:13:19.249Z,98860.75
2022-08-31T12:16:01.466Z,98858.22
2022-08-31T12:18:57.979Z,98863.56
2022-08-31T12:21:55.407Z,98857.94
2022-08-31T12:30:54.943Z,98855.66
2022-08-31T12:33:36.857Z,98859.19
2022-08-31T12:36:30.443Z,98862.47
2022-08-31T12:51:59.032Z,98866.28
2022-08-31T12:58:22.640Z,98861.72
2022-08-31T13:00:51.488Z,98875.88
2022-08-31T13:08:56.952Z,98859.09
2022-08-31T13:11:41.692Z,98855.47
2022-08-31T13:14:14.915Z,98857.28
2022-08-31T13:16:54.278Z,98860.94
2022-08-31T13:19:35.025Z,98861.78
2022-08-31T13:22:19.693Z,98853.25
2022-08-31T13:25:09.844Z,98849.69
2022-08-31T13:33:53.390Z,98853.25
2022-08-31T13:42:56.923Z,98857.94
2022-08-31T13:51:07.112Z,98845.09
2022-08-31T13:53:48.053Z,98850.56
2022-08-31T13:56:49.369Z,98849.47
2022-08-31T13:59:31.333Z,98852.56
2022-08-31T14:25:20.243Z,98848.94
2022-08-31T14:27:48.283Z,98838.94
2022-08-31T14:30:23.293Z,98844.72
2022-08-31T14:38:18.048Z,98841.06
2022-08-31T14:40:53.296Z,98835.44
2022-08-31T14:59:33.343Z,98828.03
2022-08-31T15:07:23.162Z,98826.72
2022-08-31T15:12:35.546Z,98823.47
2022-08-31T15:17:43.981Z,98829.13
2022-08-31T15:22:58.841Z,98824.56
2022-08-31T15:25:27.074Z,98835.47
2022-08-31T15:27:56.122Z,98840.44
2022-08-31T15:30:26.405Z,98841.56
2022-08-31T15:38:25.851Z,98841.81
2022-08-31T15:40:53.483Z,98846.84
2022-08-31T15:46:04.057Z,98848.25
2022-08-31T15:54:22.323Z,98845.06
2022-08-31T15:56:53.307Z,98845.31
2022-08-31T15:59:24.748Z,98843.56
2022-08-31T16:01:55.930Z,98841.91
2022-08-31T16:09:56.877Z,98838.97
2022-08-31T16:15:22.287Z,98851.41
2022-08-31T16:17:53.245Z,98851.59
2022-08-31T16:20:20.669Z,98848.44
2022-08-31T16:22:48.573Z,98848.63
2022-08-31T16:25:16.557Z,98842.31
2022-08-31T16:27:45.801Z,98850.38
2022-08-31T16:30:15.745Z,98855.94
2022-08-31T16:43:26.241Z,98854.72
2022-08-31T16:51:48.616Z,98857.72
2022-08-31T16:57:16.048Z,98858.53
2022-08-31T16:59:46.903Z,98859.00
2022-08-31T17:09:03.470Z,98867.44
2022-08-31T17:17:33.105Z,98873.78
2022-08-31T17:20:04.175Z,98879.84
2022-08-31T17:22:40.625Z,98884.09
2022-08-31T17:25:10.342Z,98888.06
2022-08-31T17:27:43.803Z,98882.44
2022-08-31T17:30:28.545Z,98890.84
2022-08-31T17:33:03.413Z,98890.06
2022-08-31T17:35:41.498Z,98891.94
2022-08-31T17:38:09.599Z,98893.66
2022-08-31T17:40:42.260Z,98900.97
2022-08-31T17:43:17.091Z,98904.94
2022-08-31T17:48:44.458Z,98894.50
2022-08-31T17:52:06.231Z,98904.88
2022-08-31T17:54:58.508Z,98892.28
2022-08-31T17:57:36.067Z,98907.72
2022-08-31T18:00:08.154Z,98918.28
2022-08-31T18:02:37.283Z,98922.66
2022-08-31T18:05:18.204Z,98926.69
2022-08-31T18:07:46.849Z,98927.41
2022-08-31T18:10:16.034Z,98939.25
2022-08-31T18:12:53.483Z,98931.75
2022-08-31T18:15:23.165Z,98938.75
2022-08-31T18:20:43.171Z,98942.06
2022-08-31T18:23:30.713Z,98944.22
2022-08-31T18:25:57.840Z,98944.44
2022-08-31T18:28:27.743Z,98945.13
2022-08-31T18:30:59.268Z,98955.06
2022-08-31T18:33:34.887Z,98956.38
2022-08-31T18:36:04.911Z,98947.69
2022-08-31T18:38:32.670Z,98957.78
2022-08-31T18:41:27.191Z,98953.56
2022-08-31T18:44:15.314Z,98951.94
2022-08-31T18:46:50.652Z,98952.44
2022-08-31T18:49:38.098Z,98959.94
2022-08-31T18:52:09.193Z,98954.44
2022-08-31T18:54:39.105Z,98959.41
2022-08-31T18:57:06.756Z,98955.91
2022-08-31T18:59:52.251Z,98965.00
2022-08-31T19:02:22.477Z,98970.81
2022-08-31T19:04:51.127Z,98971.38
2022-08-31T19:07:28.576Z,98970.69
2022-08-31T19:10:04.464Z,98972.59
2022-08-31T19:12:31.379Z,98972.59
2022-08-31T19:15:06.479Z,98964.66
2022-08-31T19:17:40.343Z,98963.66
2022-08-31T19:20:16.383Z,98967.16
2022-08-31T19:22:54.878Z,98969.06
2022-08-31T19:25:24.743Z,98968.75
2022-08-31T19:27:56.367Z,98972.94
2022-08-31T19:30:28.150Z,98969.13
2022-08-31T19:32:58.374Z,98968.47
2022-08-31T19:35:27.478Z,98969.09
2022-08-31T19:37:56.532Z,98968.00
2022-08-31T19:40:35.509Z,98966.94
2022-08-31T19:45:54.984Z,98970.66
2022-08-31T19:48:25.569Z,98971.63
2022-08-31T19:50:53.022Z,98969.34
2022-08-31T19:53:21.512Z,98971.81
2022-08-31T19:55:50.959Z,98966.22
2022-08-31T19:58:25.540Z,98974.75
2022-08-31T20:01:01.399Z,98973.72
2022-08-31T20:03:31.256Z,98973.53
2022-08-31T20:05:59.469Z,98974.88
2022-08-31T20:08:28.931Z,98969.34
2022-08-31T20:10:55.733Z,98970.94
2022-08-31T20:13:22.377Z,98967.25
2022-08-31T20:15:53.007Z,98966.44
2022-08-31T20:18:20.861Z,98965.06
2022-08-31T20:20:53.788Z,98963.22
2022-08-31T20:23:21.394Z,98967.16
2022-08-31T20:25:51.281Z,98971.41
2022-08-31T20:28:25.493Z,98971.16
2022-08-31T20:30:59.126Z,98975.66
2022-08-31T20:33:27.668Z,98971.41
2022-08-31T20:35:54.290Z,98977.50
2022-08-31T20:38:20.908Z,98974.56
2022-08-31T20:40:52.393Z,98976.97
2022-08-31T20:43:21.365Z,98976.97
2022-08-31T20:45:48.943Z,98980.16
2022-08-31T20:48:34.967Z,98983.28
2022-08-31T20:51:18.286Z,98989.06
2022-08-31T20:53:46.714Z,98987.72
2022-08-31T20:56:17.566Z,98985.59
2022-08-31T20:58:46.908Z,98986.34
2022-08-31T21:01:16.223Z,98988.09
2022-08-31T21:03:43.916Z,98981.41
2022-08-31T21:06:12.195Z,98981.41
2022-08-31T21:08:40.900Z,98985.91
2022-08-31T21:11:15.658Z,98982.66
2022-08-31T21:13:47.034Z,98983.94
2022-08-31T21:16:25.249Z,98983.94
2022-08-31T21:18:52.603Z,98987.28
2022-08-31T21:21:19.281Z,98978.22
2022-08-31T21:23:47.706Z,98977.34
2022-08-31T21:26:23.570Z,98975.34
2022-08-31T21:28:53.653Z,98978.63
2022-08-31T21:31:27.698Z,98984.06
2022-08-31T21:34:02.039Z,98974.31
2022-08-31T21:36:33.681Z,98971.19
2022-08-31T21:39:00.585Z,98977.78
2022-08-31T21:41:28.860Z,98977.53
2022-08-31T21:43:56.976Z,98968.28
2022-08-31T21:46:27.139Z,98974.41
2022-08-31T21:48:56.386Z,98978.91
2022-08-31T21:51:32.974Z,98981.81
2022-08-31T21:54:03.600Z,98979.22
2022-08-31T21:56:32.919Z,98974.44
2022-08-31T21:59:00.532Z,98976.53
2022-08-31T22:01:29.389Z,98978.41
2022-08-31T22:03:59.174Z,98971.78
2022-08-31T22:06:31.102Z,98980.53
2022-08-31T22:09:08.209Z,98980.53
2022-08-31T22:11:41.730Z,98971.31
2022-08-31T22:14:11.412Z,98978.44
2022-08-31T22:16:39.454Z,98981.34
2022-08-31T22:19:12.676Z,98976.84
2022-08-31T22:21:44.877Z,98982.94
2022-08-31T22:24:26.557Z,98987.66
2022-08-31T22:27:02.533Z,98973.03
2022-08-31T22:29:33.118Z,98975.59
2022-08-31T22:32:03.926Z,98968.44
2022-08-31T22:34:30.634Z,98969.47
2022-08-31T22:37:00.484Z,98967.34
2022-08-31T22:39:35.074Z,98968.66
2022-08-31T22:42:01.985Z,98969.03
2022-08-31T22:44:32.388Z,98979.97
2022-08-31T22:46:59.318Z,98977.41
2022-08-31T22:49:27.102Z,98981.13
2022-08-31T22:51:54.292Z,98975.88
2022-08-31T22:54:22.755Z,98967.16
2022-08-31T22:56:49.744Z,98975.06
2022-08-31T22:59:24.708Z,98969.50
2022-08-31T23:01:55.385Z,98975.88
2022-08-31T23:04:24.422Z,98974.03
2022-08-31T23:06:52.285Z,98972.19
2022-08-31T23:09:21.426Z,98967.16
2022-08-31T23:11:49.220Z,98971.16
2022-08-31T23:14:16.763Z,98971.66
2022-08-31T23:16:46.597Z,98976.69
2022-08-31T23:19:16.783Z,98973.25
2022-08-31T23:21:52.685Z,98975.34
2022-08-31T23:24:24.234Z,98972.94
2022-08-31T23:26:52.990Z,98973.47
2022-08-31T23:29:22.032Z,98973.47
2022-08-31T23:31:48.857Z,98969.44
2022-08-31T23:34:16.923Z,98962.78
2022-08-31T23:36:50.049Z,98970.19
2022-08-31T23:39:19.001Z,98962.78
2022-08-31T23:41:45.869Z,98965.69
2022-08-31T23:44:13.138Z,98956.94
2022-08-31T23:46:43.780Z,98958.53
2022-08-31T23:49:12.972Z,98947.34
2022-08-31T23:51:39.907Z,98947.34
2022-08-31T23:54:08.044Z,98939.38
2022-08-31T23:56:40.751Z,98941.25
2022-08-31T23:59:11.973Z,98944.94
